sim
Sign-in with your pilot id or email,
or register
Callsign
Passwort

Schedule Details

Flight Number: EWG1983 (2)
Departure: Cologne Bonn Airport (EDDK) at 08:30
Arrival: Munich Airport (EDDM) at 09:35
Route: Eurowings Passenger Schedule. Enter filed route here before submitting Pirep.

Weather Information
Getting current METAR information for EDDK 181250Z 09008KT 030V160 CAVOK 24/10 Q1023 NOSIG
Getting current METAR information for EDDM 181250Z 07010KT 020V120 CAVOK 19/09 Q1024 NOSIG

Schedule Frequency

Route Map